sensor_id;sensor_type;location;lat;lon;timestamp;pressure;altitude;pressure_sealevel;temperature;humidity
28428;BME280;15662;49.128;8.520;2023-03-24T00:01:17;99459.81;;;19.74;46.07
28428;BME280;15662;49.128;8.520;2023-03-24T00:03:46;99453.84;;;19.71;46.26
28428;BME280;15662;49.128;8.520;2023-03-24T00:06:15;99457.59;;;19.68;46.15
28428;BME280;15662;49.128;8.520;2023-03-24T00:08:45;99439.91;;;19.66;46.51
28428;BME280;15662;49.128;8.520;2023-03-24T00:11:15;99433.91;;;19.62;46.38
28428;BME280;15662;49.128;8.520;2023-03-24T00:13:45;99438.53;;;19.60;46.52
28428;BME280;15662;49.128;8.520;2023-03-24T00:16:18;99415.41;;;19.57;46.43
28428;BME280;15662;49.128;8.520;2023-03-24T00:18:46;99428.09;;;19.55;46.46
28428;BME280;15662;49.128;8.520;2023-03-24T00:21:22;99409.41;;;19.54;46.66
28428;BME280;15662;49.128;8.520;2023-03-24T00:23:53;99423.81;;;19.53;46.35
28428;BME280;15662;49.128;8.520;2023-03-24T00:26:22;99419.66;;;19.49;46.51
28428;BME280;15662;49.128;8.520;2023-03-24T00:28:53;99416.00;;;19.50;46.70
28428;BME280;15662;49.128;8.520;2023-03-24T00:31:22;99406.09;;;19.50;46.45
28428;BME280;15662;49.128;8.520;2023-03-24T00:33:51;99397.53;;;19.45;46.70
28428;BME280;15662;49.128;8.520;2023-03-24T00:36:23;99406.97;;;19.51;46.69
28428;BME280;15662;49.128;8.520;2023-03-24T00:38:52;99399.16;;;19.48;46.82
28428;BME280;15662;49.128;8.520;2023-03-24T00:41:21;99393.78;;;19.48;46.82
28428;BME280;15662;49.128;8.520;2023-03-24T00:43:55;99384.22;;;19.44;46.78
28428;BME280;15662;49.128;8.520;2023-03-24T00:46:24;99366.53;;;19.41;46.81
28428;BME280;15662;49.128;8.520;2023-03-24T00:49:05;99368.97;;;19.44;46.68
28428;BME280;15662;49.128;8.520;2023-03-24T00:51:39;99361.03;;;19.43;46.72
28428;BME280;15662;49.128;8.520;2023-03-24T00:54:10;99361.88;;;19.43;46.97
28428;BME280;15662;49.128;8.520;2023-03-24T00:56:40;99365.66;;;19.41;46.60
28428;BME280;15662;49.128;8.520;2023-03-24T00:59:10;99368.34;;;19.41;46.75
28428;BME280;15662;49.128;8.520;2023-03-24T01:01:40;99351.13;;;19.43;46.62
28428;BME280;15662;49.128;8.520;2023-03-24T01:04:09;99352.97;;;19.43;46.71
28428;BME280;15662;49.128;8.520;2023-03-24T01:06:38;99347.47;;;19.44;46.76
28428;BME280;15662;49.128;8.520;2023-03-24T01:09:07;99346.84;;;19.41;46.65
28428;BME280;15662;49.128;8.520;2023-03-24T01:11:39;99344.78;;;19.44;46.50
28428;BME280;15662;49.128;8.520;2023-03-24T01:14:10;99351.97;;;19.44;46.79
28428;BME280;15662;49.128;8.520;2023-03-24T01:16:38;99345.75;;;19.43;47.03
28428;BME280;15662;49.128;8.520;2023-03-24T01:19:06;99342.84;;;19.46;46.98
28428;BME280;15662;49.128;8.520;2023-03-24T01:21:37;99343.44;;;19.50;46.84
28428;BME280;15662;49.128;8.520;2023-03-24T01:24:06;99334.66;;;19.48;46.61
28428;BME280;15662;49.128;8.520;2023-03-24T01:26:34;99331.84;;;19.49;46.77
28428;BME280;15662;49.128;8.520;2023-03-24T01:29:02;99326.44;;;19.49;46.76
28428;BME280;15662;49.128;8.520;2023-03-24T01:31:30;99332.94;;;19.47;46.81
28428;BME280;15662;49.128;8.520;2023-03-24T01:33:59;99324.13;;;19.45;47.11
28428;BME280;15662;49.128;8.520;2023-03-24T01:36:27;99324.03;;;19.46;47.05
28428;BME280;15662;49.128;8.520;2023-03-24T01:38:55;99326.81;;;19.45;47.19
28428;BME280;15662;49.128;8.520;2023-03-24T01:41:29;99317.91;;;19.44;47.15
28428;BME280;15662;49.128;8.520;2023-03-24T01:43:59;99325.09;;;19.44;47.16
28428;BME280;15662;49.128;8.520;2023-03-24T01:46:27;99312.78;;;19.41;47.34
28428;BME280;15662;49.128;8.520;2023-03-24T01:49:09;99313.38;;;19.45;47.54
28428;BME280;15662;49.128;8.520;2023-03-24T01:51:42;99307.28;;;19.43;47.24
28428;BME280;15662;49.128;8.520;2023-03-24T01:54:41;99287.50;;;19.44;47.18
28428;BME280;15662;49.128;8.520;2023-03-24T01:57:32;99303.13;;;19.39;47.12
28428;BME280;15662;49.128;8.520;2023-03-24T02:00:10;99308.72;;;19.36;47.37
28428;BME280;15662;49.128;8.520;2023-03-24T02:03:18;99313.38;;;19.33;47.28
28428;BME280;15662;49.128;8.520;2023-03-24T02:05:54;99303.47;;;19.34;47.31
28428;BME280;15662;49.128;8.520;2023-03-24T02:08:38;99285.16;;;19.39;47.54
28428;BME280;15662;49.128;8.520;2023-03-24T02:11:08;99290.81;;;19.36;47.37
28428;BME280;15662;49.128;8.520;2023-03-24T02:13:45;99294.22;;;19.38;47.41
28428;BME280;15662;49.128;8.520;2023-03-24T02:39:51;99304.09;;;19.26;47.99
28428;BME280;15662;49.128;8.520;2023-03-24T02:46:05;99280.16;;;19.23;47.99
28428;BME280;15662;49.128;8.520;2023-03-24T02:54:32;99243.03;;;19.17;47.89
28428;BME280;15662;49.128;8.520;2023-03-24T03:00:35;99247.66;;;19.15;47.85
28428;BME280;15662;49.128;8.520;2023-03-24T03:03:35;99257.31;;;19.18;47.95
28428;BME280;15662;49.128;8.520;2023-03-24T03:06:30;99235.22;;;19.14;47.81
28428;BME280;15662;49.128;8.520;2023-03-24T03:09:05;99249.00;;;19.21;47.90
28428;BME280;15662;49.128;8.520;2023-03-24T03:11:36;99246.22;;;19.22;47.71
28428;BME280;15662;49.128;8.520;2023-03-24T03:16:54;99248.78;;;19.24;47.70
28428;BME280;15662;49.128;8.520;2023-03-24T03:19:43;99242.41;;;19.25;47.85
28428;BME280;15662;49.128;8.520;2023-03-24T03:22:17;99249.50;;;19.26;47.81
28428;BME280;15662;49.128;8.520;2023-03-24T03:24:50;99253.16;;;19.25;48.08
28428;BME280;15662;49.128;8.520;2023-03-24T03:27:30;99253.06;;;19.26;48.03
28428;BME280;15662;49.128;8.520;2023-03-24T03:32:37;99266.59;;;19.25;48.07
28428;BME280;15662;49.128;8.520;2023-03-24T03:40:40;99300.88;;;19.10;48.83
28428;BME280;15662;49.128;8.520;2023-03-24T03:43:17;99303.56;;;18.99;48.81
28428;BME280;15662;49.128;8.520;2023-03-24T03:45:45;99324.41;;;18.95;48.74
28428;BME280;15662;49.128;8.520;2023-03-24T03:48:16;99314.88;;;18.91;48.77
28428;BME280;15662;49.128;8.520;2023-03-24T03:50:45;99321.47;;;18.87;48.73
28428;BME280;15662;49.128;8.520;2023-03-24T03:53:16;99305.38;;;18.87;48.55
28428;BME280;15662;49.128;8.520;2023-03-24T03:55:47;99321.56;;;18.86;48.60
28428;BME280;15662;49.128;8.520;2023-03-24T03:58:15;99320.84;;;18.84;48.72
28428;BME280;15662;49.128;8.520;2023-03-24T04:00:54;99320.63;;;18.87;48.63
28428;BME280;15662;49.128;8.520;2023-03-24T04:14:10;99340.28;;;18.87;48.20
28428;BME280;15662;49.128;8.520;2023-03-24T04:24:11;99361.28;;;18.93;48.19
28428;BME280;15662;49.128;8.520;2023-03-24T04:30:15;99373.84;;;18.93;48.36
28428;BME280;15662;49.128;8.520;2023-03-24T04:35:59;99372.00;;;18.82;49.05
28428;BME280;15662;49.128;8.520;2023-03-24T04:38:47;99390.28;;;18.77;49.57
28428;BME280;15662;49.128;8.520;2023-03-24T04:41:30;99385.25;;;18.72;49.76
28428;BME280;15662;49.128;8.520;2023-03-24T04:44:11;99384.47;;;18.70;50.39
28428;BME280;15662;49.128;8.520;2023-03-24T04:46:56;99388.78;;;18.73;50.37
28428;BME280;15662;49.128;8.520;2023-03-24T04:49:24;99398.66;;;18.72;50.61
28428;BME280;15662;49.128;8.520;2023-03-24T04:51:54;99395.84;;;18.74;50.75
28428;BME280;15662;49.128;8.520;2023-03-24T04:54:25;99398.75;;;18.71;50.89
28428;BME280;15662;49.128;8.520;2023-03-24T04:57:02;99405.75;;;18.73;51.09
28428;BME280;15662;49.128;8.520;2023-03-24T04:59:39;99404.03;;;18.72;51.40
28428;BME280;15662;49.128;8.520;2023-03-24T05:02:08;99408.44;;;18.73;51.27
28428;BME280;15662;49.128;8.520;2023-03-24T05:04:40;99407.91;;;18.68;51.57
28428;BME280;15662;49.128;8.520;2023-03-24T05:07:15;99404.25;;;18.69;51.77
28428;BME280;15662;49.128;8.520;2023-03-24T05:09:47;99405.41;;;18.65;51.90
28428;BME280;15662;49.128;8.520;2023-03-24T05:12:14;99417.53;;;18.71;51.95
28428;BME280;15662;49.128;8.520;2023-03-24T05:15:03;99420.53;;;18.66;51.99
28428;BME280;15662;49.128;8.520;2023-03-24T05:17:31;99428.50;;;18.68;52.30
28428;BME280;15662;49.128;8.520;2023-03-24T05:20:00;99438.59;;;18.64;52.47
28428;BME280;15662;49.128;8.520;2023-03-24T05:22:28;99422.09;;;18.58;53.06
28428;BME280;15662;49.128;8.520;2023-03-24T05:24:55;99426.94;;;18.52;53.25
28428;BME280;15662;49.128;8.520;2023-03-24T05:27:23;99423.84;;;18.46;53.53
28428;BME280;15662;49.128;8.520;2023-03-24T05:29:52;99413.69;;;18.38;53.92
28428;BME280;15662;49.128;8.520;2023-03-24T05:32:24;99407.81;;;18.33;53.78
28428;BME280;15662;49.128;8.520;2023-03-24T05:34:52;99407.56;;;18.36;53.73
28428;BME280;15662;49.128;8.520;2023-03-24T05:37:28;99402.19;;;18.36;53.75
28428;BME280;15662;49.128;8.520;2023-03-24T05:39:56;99389.75;;;18.35;53.75
28428;BME280;15662;49.128;8.520;2023-03-24T05:42:54;99390.59;;;18.36;53.83
28428;BME280;15662;49.128;8.520;2023-03-24T05:45:24;99390.47;;;18.37;53.79
28428;BME280;15662;49.128;8.520;2023-03-24T05:47:53;99396.63;;;18.39;53.87
28428;BME280;15662;49.128;8.520;2023-03-24T05:50:31;99390.06;;;18.43;53.79
28428;BME280;15662;49.128;8.520;2023-03-24T05:53:01;99402.38;;;18.46;53.87
28428;BME280;15662;49.128;8.520;2023-03-24T05:55:51;99397.00;;;18.46;54.00
28428;BME280;15662;49.128;8.520;2023-03-24T05:58:38;99392.41;;;18.48;53.87
28428;BME280;15662;49.128;8.520;2023-03-24T06:01:08;99392.06;;;18.52;53.96
28428;BME280;15662;49.128;8.520;2023-03-24T06:03:38;99386.44;;;18.55;53.90
28428;BME280;15662;49.128;8.520;2023-03-24T06:06:12;99384.53;;;18.58;53.98
28428;BME280;15662;49.128;8.520;2023-03-24T06:08:44;99381.84;;;18.58;53.86
28428;BME280;15662;49.128;8.520;2023-03-24T06:11:13;99383.09;;;18.65;53.96
28428;BME280;15662;49.128;8.520;2023-03-24T06:13:54;99384.91;;;18.64;53.95
28428;BME280;15662;49.128;8.520;2023-03-24T06:16:42;99389.00;;;18.70;54.10
28428;BME280;15662;49.128;8.520;2023-03-24T06:19:14;99385.34;;;18.71;54.24
28428;BME280;15662;49.128;8.520;2023-03-24T06:21:53;99390.38;;;18.75;54.36
28428;BME280;15662;49.128;8.520;2023-03-24T06:24:26;99390.13;;;18.78;54.54
28428;BME280;15662;49.128;8.520;2023-03-24T06:26:59;99394.75;;;18.76;54.42
28428;BME280;15662;49.128;8.520;2023-03-24T06:29:35;99397.34;;;18.78;54.35
28428;BME280;15662;49.128;8.520;2023-03-24T06:32:03;99411.28;;;18.83;54.46
28428;BME280;15662;49.128;8.520;2023-03-24T06:34:44;99406.25;;;18.78;54.41
28428;BME280;15662;49.128;8.520;2023-03-24T06:37:18;99428.03;;;18.87;54.46
28428;BME280;15662;49.128;8.520;2023-03-24T06:39:48;99419.84;;;18.88;54.42
28428;BME280;15662;49.128;8.520;2023-03-24T06:42:22;99416.91;;;18.91;54.42
28428;BME280;15662;49.128;8.520;2023-03-24T06:44:52;99416.91;;;18.91;54.60
28428;BME280;15662;49.128;8.520;2023-03-24T06:47:20;99420.22;;;18.95;54.44
28428;BME280;15662;49.128;8.520;2023-03-24T06:49:48;99421.06;;;18.95;54.49
28428;BME280;15662;49.128;8.520;2023-03-24T06:52:16;99430.00;;;18.96;54.50
28428;BME280;15662;49.128;8.520;2023-03-24T06:54:44;99430.75;;;18.98;54.62
28428;BME280;15662;49.128;8.520;2023-03-24T06:57:12;99430.75;;;18.98;54.70
28428;BME280;15662;49.128;8.520;2023-03-24T07:00:00;99443.19;;;18.99;54.55
28428;BME280;15662;49.128;8.520;2023-03-24T07:02:32;99455.41;;;19.03;54.48
28428;BME280;15662;49.128;8.520;2023-03-24T07:05:04;99443.81;;;19.02;54.61
28428;BME280;15662;49.128;8.520;2023-03-24T07:07:43;99446.50;;;19.02;54.74
28428;BME280;15662;49.128;8.520;2023-03-24T07:10:35;99450.41;;;18.98;54.58
28428;BME280;15662;49.128;8.520;2023-03-24T07:13:07;99460.28;;;18.98;54.55
28428;BME280;15662;49.128;8.520;2023-03-24T07:15:36;99448.91;;;18.94;54.65
28428;BME280;15662;49.128;8.520;2023-03-24T07:18:05;99466.97;;;18.92;54.72
28428;BME280;15662;49.128;8.520;2023-03-24T07:20:44;99454.56;;;18.78;54.82
28428;BME280;15662;49.128;8.520;2023-03-24T07:23:15;99465.31;;;18.78;54.74
28428;BME280;15662;49.128;8.520;2023-03-24T07:25:43;99463.94;;;18.73;54.69
28428;BME280;15662;49.128;8.520;2023-03-24T07:28:32;99475.53;;;18.73;54.94
28428;BME280;15662;49.128;8.520;2023-03-24T07:31:04;99459.41;;;18.73;54.92
28428;BME280;15662;49.128;8.520;2023-03-24T07:33:37;99457.72;;;18.72;55.10
28428;BME280;15662;49.128;8.520;2023-03-24T07:36:06;99451.50;;;18.72;54.92
28428;BME280;15662;49.128;8.520;2023-03-24T07:38:39;99466.63;;;18.73;55.09
28428;BME280;15662;49.128;8.520;2023-03-24T07:41:13;99454.06;;;18.73;55.28
28428;BME280;15662;49.128;8.520;2023-03-24T07:43:50;99457.72;;;18.72;55.25
28428;BME280;15662;49.128;8.520;2023-03-24T07:46:24;99446.97;;;18.72;55.45
28428;BME280;15662;49.128;8.520;2023-03-24T07:48:52;99434.28;;;18.74;55.57
28428;BME280;15662;49.128;8.520;2023-03-24T07:51:20;99438.69;;;18.75;55.64
28428;BME280;15662;49.128;8.520;2023-03-24T07:53:59;99422.09;;;18.81;55.71
28428;BME280;15662;49.128;8.520;2023-03-24T07:56:33;99413.09;;;18.83;55.59
28428;BME280;15662;49.128;8.520;2023-03-24T07:59:01;99379.31;;;18.91;55.63
28428;BME280;15662;49.128;8.520;2023-03-24T08:01:49;99413.38;;;18.91;55.86
28428;BME280;15662;49.128;8.520;2023-03-24T08:04:57;99431.22;;;18.92;55.96
28428;BME280;15662;49.128;8.520;2023-03-24T08:07:38;99422.91;;;18.95;55.87
28428;BME280;15662;49.128;8.520;2023-03-24T08:10:13;99428.16;;;18.96;55.76
28428;BME280;15662;49.128;8.520;2023-03-24T08:12:42;99430.84;;;18.96;55.83
28428;BME280;15662;49.128;8.520;2023-03-24T08:15:10;99417.31;;;18.98;55.83
28428;BME280;15662;49.128;8.520;2023-03-24T08:17:41;99431.47;;;19.00;55.89
28428;BME280;15662;49.128;8.520;2023-03-24T08:20:11;99439.44;;;19.01;55.77
28428;BME280;15662;49.128;8.520;2023-03-24T08:22:45;99434.06;;;19.01;55.74
28428;BME280;15662;49.128;8.520;2023-03-24T08:25:18;99425.25;;;18.99;55.89
28428;BME280;15662;49.128;8.520;2023-03-24T08:27:47;99438.47;;;19.02;55.81
28428;BME280;15662;49.128;8.520;2023-03-24T08:30:33;99434.16;;;19.00;55.63
28428;BME280;15662;49.128;8.520;2023-03-24T08:33:02;99445.25;;;18.95;55.83
28428;BME280;15662;49.128;8.520;2023-03-24T08:35:33;99431.38;;;19.01;55.55
28428;BME280;15662;49.128;8.520;2023-03-24T08:38:08;99435.66;;;19.04;55.72
28428;BME280;15662;49.128;8.520;2023-03-24T08:40:38;99454.22;;;19.07;55.73
28428;BME280;15662;49.128;8.520;2023-03-24T08:43:08;99451.06;;;19.13;55.44
28428;BME280;15662;49.128;8.520;2023-03-24T08:45:40;99460.31;;;19.09;55.28
28428;BME280;15662;49.128;8.520;2023-03-24T08:48:09;99451.28;;;19.10;55.38
28428;BME280;15662;49.128;8.520;2023-03-24T08:50:40;99457.63;;;19.09;55.41
28428;BME280;15662;49.128;8.520;2023-03-24T08:53:09;99451.28;;;19.10;55.41
28428;BME280;15662;49.128;8.520;2023-03-24T08:55:42;99433.47;;;19.09;55.44
28428;BME280;15662;49.128;8.520;2023-03-24T08:58:18;99435.47;;;19.18;55.27
28428;BME280;15662;49.128;8.520;2023-03-24T09:00:48;99451.56;;;19.18;55.41
28428;BME280;15662;49.128;8.520;2023-03-24T09:03:18;99439.84;;;19.19;55.34
28428;BME280;15662;49.128;8.520;2023-03-24T09:05:49;99446.72;;;19.23;55.27
28428;BME280;15662;49.128;8.520;2023-03-24T09:08:18;99436.47;;;19.28;55.04
28428;BME280;15662;49.128;8.520;2023-03-24T09:10:48;99451.25;;;19.34;55.06
28428;BME280;15662;49.128;8.520;2023-03-24T09:13:19;99442.84;;;19.39;54.96
28428;BME280;15662;49.128;8.520;2023-03-24T09:15:53;99447.75;;;19.45;54.75
28428;BME280;15662;49.128;8.520;2023-03-24T09:18:32;99449.34;;;19.47;54.49
28428;BME280;15662;49.128;8.520;2023-03-24T09:21:00;99444.84;;;19.48;54.57
28428;BME280;15662;49.128;8.520;2023-03-24T09:23:28;99474.91;;;19.53;54.79
28428;BME280;15662;49.128;8.520;2023-03-24T09:25:58;99461.22;;;19.56;54.24
28428;BME280;15662;49.128;8.520;2023-03-24T09:28:26;99452.53;;;19.52;54.31
28428;BME280;15662;49.128;8.520;2023-03-24T09:31:01;99455.53;;;19.61;54.55
28428;BME280;15662;49.128;8.520;2023-03-24T09:33:31;99448.66;;;19.56;54.49
28428;BME280;15662;49.128;8.520;2023-03-24T09:36:03;99456.72;;;19.56;54.46
28428;BME280;15662;49.128;8.520;2023-03-24T09:38:32;99448.66;;;19.56;54.60
28428;BME280;15662;49.128;8.520;2023-03-24T09:41:03;99439.16;;;19.64;54.53
28428;BME280;15662;49.128;8.520;2023-03-24T09:43:40;99437.81;;;19.69;54.66
28428;BME280;15662;49.128;8.520;2023-03-24T09:46:40;99430.38;;;19.73;54.75
28428;BME280;15662;49.128;8.520;2023-03-24T09:49:19;99444.66;;;19.84;54.78
28428;BME280;15662;49.128;8.520;2023-03-24T09:51:58;99430.41;;;19.95;54.95
28428;BME280;15662;49.128;8.520;2023-03-24T09:54:56;99439.69;;;20.02;54.69
28428;BME280;15662;49.128;8.520;2023-03-24T09:59:55;99435.78;;;20.06;54.53
28428;BME280;15662;49.128;8.520;2023-03-24T10:02:28;99451.53;;;20.11;54.19
28428;BME280;15662;49.128;8.520;2023-03-24T10:04:58;99454.09;;;20.13;54.57
28428;BME280;15662;49.128;8.520;2023-03-24T10:10:40;99451.28;;;20.14;54.59
28428;BME280;15662;49.128;8.520;2023-03-24T10:13:24;99455.09;;;20.12;54.27
28428;BME280;15662;49.128;8.520;2023-03-24T10:16:15;99458.75;;;20.10;54.54
28428;BME280;15662;49.128;8.520;2023-03-24T10:19:00;99457.28;;;20.06;54.34
28428;BME280;15662;49.128;8.520;2023-03-24T10:21:34;99465.72;;;20.02;54.53
28428;BME280;15662;49.128;8.520;2023-03-24T10:24:54;99474.03;;;19.99;54.33
28428;BME280;15662;49.128;8.520;2023-03-24T10:28:18;99476.13;;;19.95;54.20
28428;BME280;15662;49.128;8.520;2023-03-24T10:31:14;99465.72;;;19.91;54.53
28428;BME280;15662;49.128;8.520;2023-03-24T10:34:04;99466.31;;;19.83;54.76
28428;BME280;15662;49.128;8.520;2023-03-24T10:36:38;99476.94;;;19.84;54.60
28428;BME280;15662;49.128;8.520;2023-03-24T10:39:15;99489.03;;;19.79;54.79
28428;BME280;15662;49.128;8.520;2023-03-24T10:41:52;99490.25;;;19.75;54.72
28428;BME280;15662;49.128;8.520;2023-03-24T10:44:25;99495.88;;;19.72;54.85
28428;BME280;15662;49.128;8.520;2023-03-24T10:46:58;99494.63;;;19.65;54.72
28428;BME280;15662;49.128;8.520;2023-03-24T10:49:29;99503.66;;;19.64;54.99
28428;BME280;15662;49.128;8.520;2023-03-24T10:52:04;99508.31;;;19.62;54.90
28428;BME280;15662;49.128;8.520;2023-03-24T10:54:35;99508.00;;;19.53;55.30
28428;BME280;15662;49.128;8.520;2023-03-24T10:57:04;99506.03;;;19.55;55.45
28428;BME280;15662;49.128;8.520;2023-03-24T11:02:30;99525.81;;;19.67;55.84
28428;BME280;15662;49.128;8.520;2023-03-24T11:05:15;99523.00;;;19.80;55.89
28428;BME280;15662;49.128;8.520;2023-03-24T11:07:49;99536.84;;;19.87;56.05
28428;BME280;15662;49.128;8.520;2023-03-24T11:10:24;99518.66;;;19.90;55.61
28428;BME280;15662;49.128;8.520;2023-03-24T11:15:27;99514.84;;;20.04;55.56
28428;BME280;15662;49.128;8.520;2023-03-24T11:21:00;99506.81;;;20.26;55.29
28428;BME280;15662;49.128;8.520;2023-03-24T11:28:55;99516.75;;;20.48;54.36
28428;BME280;15662;49.128;8.520;2023-03-24T11:31:30;99513.19;;;20.48;54.06
28428;BME280;15662;49.128;8.520;2023-03-24T11:34:17;99526.91;;;20.56;53.87
28428;BME280;15662;49.128;8.520;2023-03-24T11:37:13;99525.44;;;20.52;53.82
28428;BME280;15662;49.128;8.520;2023-03-24T11:39:43;99540.22;;;20.46;53.97
28428;BME280;15662;49.128;8.520;2023-03-24T11:42:15;99558.31;;;20.44;53.75
28428;BME280;15662;49.128;8.520;2023-03-24T11:44:50;99595.97;;;20.33;52.97
28428;BME280;15662;49.128;8.520;2023-03-24T11:47:32;99607.63;;;19.87;52.19
28428;BME280;15662;49.128;8.520;2023-03-24T11:53:10;99596.38;;;18.97;53.30
28428;BME280;15662;49.128;8.520;2023-03-24T11:56:02;99585.59;;;18.73;53.77
28428;BME280;15662;49.128;8.520;2023-03-24T11:58:45;99587.19;;;18.63;53.80
28428;BME280;15662;49.128;8.520;2023-03-24T12:01:25;99586.22;;;18.51;54.03
28428;BME280;15662;49.128;8.520;2023-03-24T12:04:13;99585.06;;;18.43;54.18
28428;BME280;15662;49.128;8.520;2023-03-24T12:25:02;99580.84;;;18.64;54.31
28428;BME280;15662;49.128;8.520;2023-03-24T12:36:49;99583.75;;;18.74;53.93
28428;BME280;15662;49.128;8.520;2023-03-24T12:39:33;99581.28;;;18.71;53.77
28428;BME280;15662;49.128;8.520;2023-03-24T12:42:14;99573.16;;;18.72;53.80
28428;BME280;15662;49.128;8.520;2023-03-24T12:59:16;99571.91;;;18.89;53.56
28428;BME280;15662;49.128;8.520;2023-03-24T13:02:11;99574.44;;;19.03;53.83
28428;BME280;15662;49.128;8.520;2023-03-24T13:04:45;99573.13;;;19.09;53.81
28428;BME280;15662;49.128;8.520;2023-03-24T13:07:19;99572.47;;;19.18;53.71
28428;BME280;15662;49.128;8.520;2023-03-24T13:10:13;99595.84;;;19.29;53.27
28428;BME280;15662;49.128;8.520;2023-03-24T13:12:58;99591.22;;;19.31;53.33
28428;BME280;15662;49.128;8.520;2023-03-24T13:15:53;99593.31;;;19.39;53.50
28428;BME280;15662;49.128;8.520;2023-03-24T13:18:40;99592.00;;;19.44;53.38
28428;BME280;15662;49.128;8.520;2023-03-24T13:21:18;99604.59;;;19.44;53.05
28428;BME280;15662;49.128;8.520;2023-03-24T13:24:06;99614.78;;;19.51;52.94
28428;BME280;15662;49.128;8.520;2023-03-24T13:37:54;99595.72;;;19.54;52.54
28428;BME280;15662;49.128;8.520;2023-03-24T13:40:27;99604.41;;;19.58;52.81
28428;BME280;15662;49.128;8.520;2023-03-24T13:42:57;99598.59;;;19.64;52.73
28428;BME280;15662;49.128;8.520;2023-03-24T13:50:57;99591.31;;;19.66;51.78
28428;BME280;15662;49.128;8.520;2023-03-24T13:53:38;99576.38;;;19.62;51.92
28428;BME280;15662;49.128;8.520;2023-03-24T13:56:09;99577.53;;;19.58;51.70
28428;BME280;15662;49.128;8.520;2023-03-24T13:59:04;99576.81;;;19.56;51.70
28428;BME280;15662;49.128;8.520;2023-03-24T14:01:42;99579.50;;;19.56;51.66
28428;BME280;15662;49.128;8.520;2023-03-24T14:09:25;99583.47;;;19.63;51.55
28428;BME280;15662;49.128;8.520;2023-03-24T14:14:26;99592.88;;;19.69;51.47
28428;BME280;15662;49.128;8.520;2023-03-24T14:17:17;99583.63;;;19.73;51.49
28428;BME280;15662;49.128;8.520;2023-03-24T14:22:33;99574.69;;;19.72;51.51
28428;BME280;15662;49.128;8.520;2023-03-24T14:27:47;99578.75;;;19.78;51.59
28428;BME280;15662;49.128;8.520;2023-03-24T14:30:23;99572.78;;;19.86;51.59
28428;BME280;15662;49.128;8.520;2023-03-24T14:32:56;99559.09;;;19.89;51.57
28428;BME280;15662;49.128;8.520;2023-03-24T14:35:42;99553.13;;;19.96;51.41
28428;BME280;15662;49.128;8.520;2023-03-24T14:41:06;99559.72;;;20.03;50.84
28428;BME280;15662;49.128;8.520;2023-03-24T14:48:56;99539.06;;;20.04;50.92
28428;BME280;15662;49.128;8.520;2023-03-24T14:51:39;99541.53;;;20.07;51.06
28428;BME280;15662;49.128;8.520;2023-03-24T14:56:52;99542.03;;;20.12;51.25
28428;BME280;15662;49.128;8.520;2023-03-24T15:03:40;99548.88;;;20.16;50.95
28428;BME280;15662;49.128;8.520;2023-03-24T15:05:47;99546.06;;;20.18;51.11
28428;BME280;15662;49.128;8.520;2023-03-24T15:08:19;99535.94;;;20.21;51.29
28428;BME280;15662;49.128;8.520;2023-03-24T15:11:06;99546.44;;;20.24;51.05
28428;BME280;15662;49.128;8.520;2023-03-24T15:14:12;99541.03;;;20.24;51.11
28428;BME280;15662;49.128;8.520;2023-03-24T15:16:56;99544.38;;;20.28;51.26
28428;BME280;15662;49.128;8.520;2023-03-24T15:19:28;99548.66;;;20.30;51.17
28428;BME280;15662;49.128;8.520;2023-03-24T15:22:08;99543.78;;;20.35;50.83
28428;BME280;15662;49.128;8.520;2023-03-24T15:24:40;99546.56;;;20.34;50.83
28428;BME280;15662;49.128;8.520;2023-03-24T15:27:25;99533.00;;;20.35;50.56
28428;BME280;15662;49.128;8.520;2023-03-24T15:29:57;99536.16;;;20.29;50.49
28428;BME280;15662;49.128;8.520;2023-03-24T15:32:27;99530.28;;;20.13;50.77
28428;BME280;15662;49.128;8.520;2023-03-24T15:35:05;99508.16;;;20.21;50.55
28428;BME280;15662;49.128;8.520;2023-03-24T15:37:41;99520.16;;;20.28;50.70
28428;BME280;15662;49.128;8.520;2023-03-24T15:43:04;99521.00;;;20.28;50.31
28428;BME280;15662;49.128;8.520;2023-03-24T15:45:51;99517.44;;;20.28;50.26
28428;BME280;15662;49.128;8.520;2023-03-24T15:48:37;99527.09;;;20.19;50.05
28428;BME280;15662;49.128;8.520;2023-03-24T15:51:08;99519.03;;;20.19;49.98
28428;BME280;15662;49.128;8.520;2023-03-24T15:53:47;99523.81;;;20.16;50.21
28428;BME280;15662;49.128;8.520;2023-03-24T15:56:30;99510.22;;;20.17;50.14
28428;BME280;15662;49.128;8.520;2023-03-24T16:01:32;99515.03;;;20.25;50.76
28428;BME280;15662;49.128;8.520;2023-03-24T16:04:16;99501.31;;;20.28;50.61
28428;BME280;15662;49.128;8.520;2023-03-24T16:06:52;99500.31;;;20.29;50.56
28428;BME280;15662;49.128;8.520;2023-03-24T16:09:22;99498.13;;;20.23;50.67
28428;BME280;15662;49.128;8.520;2023-03-24T16:11:54;99505.47;;;20.21;50.58
28428;BME280;15662;49.128;8.520;2023-03-24T16:14:29;99504.72;;;20.19;50.58
28428;BME280;15662;49.128;8.520;2023-03-24T16:17:00;99506.06;;;20.13;50.30
28428;BME280;15662;49.128;8.520;2023-03-24T16:19:31;99502.88;;;20.08;50.63
28428;BME280;15662;49.128;8.520;2023-03-24T16:21:59;99495.81;;;20.07;50.62
28428;BME280;15662;49.128;8.520;2023-03-24T16:24:27;99505.72;;;20.06;50.49
28428;BME280;15662;49.128;8.520;2023-03-24T16:26:55;99508.53;;;20.05;50.56
28428;BME280;15662;49.128;8.520;2023-03-24T16:29:43;99515.22;;;19.99;50.65
28428;BME280;15662;49.128;8.520;2023-03-24T16:32:28;99509.13;;;19.97;50.32
28428;BME280;15662;49.128;8.520;2023-03-24T16:34:58;99510.19;;;19.95;50.53
28428;BME280;15662;49.128;8.520;2023-03-24T16:37:26;99500.78;;;19.89;50.66
28428;BME280;15662;49.128;8.520;2023-03-24T16:39:53;99509.69;;;19.90;50.44
28428;BME280;15662;49.128;8.520;2023-03-24T16:42:21;99511.78;;;19.86;50.63
28428;BME280;15662;49.128;8.520;2023-03-24T16:44:49;99516.31;;;19.86;50.71
28428;BME280;15662;49.128;8.520;2023-03-24T16:47:17;99517.53;;;19.81;50.41
28428;BME280;15662;49.128;8.520;2023-03-24T16:49:45;99507.63;;;19.82;50.40